Time;durP1;ratioP1;P1;durP2;ratioP2;P2;SDS_P1;SDS_P2;PMS_P1;PMS_P2;Temp;Humidity;BMP_temperature;BMP_pressure;BME280_temperature;BME280_humidity;BME280_pressure;Samples;Min_cycle;Max_cycle;Signal;HPM_P1;HPM_P2
2024/02/21 00:00:02;;;;;;;13.43;4.93;;;;;;;6.12;61.42;101794.81;4927899;28;20737;-72
2024/02/21 00:02:29;;;;;;;10.70;4.28;;;;;;;5.98;61.31;101792.31;4934766;28;20031;-71
2024/02/21 00:04:54;;;;;;;8.93;4.30;;;;;;;6.14;60.89;101788.72;4939856;28;20065;-70
2024/02/21 00:07:20;;;;;;;9.25;4.00;;;;;;;6.32;60.43;101781.72;4942278;28;20035;-70
2024/02/21 00:09:45;;;;;;;12.15;3.15;;;;;;;6.27;60.18;101789.53;4932843;28;20449;-70
2024/02/21 00:12:13;;;;;;;6.10;3.25;;;;;;;6.73;59.17;101783.97;4941148;28;20497;-71
2024/02/21 00:14:38;;;;;;;8.95;3.28;;;;;;;6.68;58.98;101786.59;4932044;28;20138;-70
2024/02/21 00:17:08;;;;;;;10.90;4.03;;;;;;;6.09;60.64;101780.13;4941106;28;20577;-69
2024/02/21 00:19:36;;;;;;;12.55;4.38;;;;;;;5.79;61.42;101776.88;4936665;28;20869;-71
2024/02/21 00:22:01;;;;;;;13.45;3.15;;;;;;;6.32;59.97;101787.78;4944225;28;20039;-70
2024/02/21 00:24:27;;;;;;;9.75;3.00;;;;;;;6.50;59.51;101782.44;4935455;28;20137;-71
2024/02/21 00:26:54;;;;;;;10.43;3.28;;;;;;;6.48;59.39;101779.00;4937831;28;20069;-69
2024/02/21 00:29:20;;;;;;;14.60;3.03;;;;;;;5.83;61.26;101775.94;4940663;28;20030;-68
2024/02/21 00:31:45;;;;;;;9.73;3.00;;;;;;;6.25;60.46;101767.91;4916060;28;20483;-68
2024/02/21 00:34:12;;;;;;;11.80;3.25;;;;;;;5.90;61.71;101766.38;4941615;28;20452;-68
2024/02/21 00:36:38;;;;;;;12.68;3.35;;;;;;;5.96;61.25;101763.75;4931839;28;20125;-69
2024/02/21 00:39:04;;;;;;;7.65;3.90;;;;;;;6.61;59.52;101758.09;4944408;28;21533;-68
2024/02/21 00:41:29;;;;;;;15.23;2.92;;;;;;;6.34;60.26;101752.28;4935466;28;20046;-68
2024/02/21 00:43:55;;;;;;;4.93;2.78;;;;;;;5.89;61.15;101720.56;4938185;28;20031;-68
2024/02/21 00:46:23;;;;;;;15.60;2.58;;;;;;;5.95;62.06;101710.16;4927394;28;20027;-68
2024/02/21 00:48:49;;;;;;;14.30;4.18;;;;;;;5.86;62.52;101673.91;4931346;28;20153;-68
2024/02/21 00:51:17;;;;;;;11.35;3.50;;;;;;;5.70;63.36;101682.66;4940847;28;20665;-71
2024/02/21 00:53:43;;;;;;;15.10;4.68;;;;;;;6.33;61.33;101687.38;4933671;28;20050;-72
2024/02/21 00:56:08;;;;;;;9.20;3.35;;;;;;;6.05;62.40;101698.81;4939541;28;20674;-71
2024/02/21 00:58:36;;;;;;;7.78;3.40;;;;;;;5.79;62.80;101683.47;4935677;28;20077;-75
2024/02/21 01:01:02;;;;;;;13.35;3.25;;;;;;;6.16;61.87;101696.16;4911937;28;20773;-74
2024/02/21 01:03:28;;;;;;;12.30;2.42;;;;;;;6.17;61.79;101699.59;4899242;28;20031;-76
2024/02/21 01:05:53;;;;;;;14.07;3.22;;;;;;;5.81;63.43;101680.84;4913704;28;20041;-76
2024/02/21 01:08:19;;;;;;;12.25;3.45;;;;;;;6.07;62.68;101676.31;4942702;28;20039;-75
2024/02/21 01:10:44;;;;;;;12.95;3.50;;;;;;;5.63;63.52;101672.31;4899748;28;20100;-75
2024/02/21 01:13:10;;;;;;;10.35;3.20;;;;;;;5.73;63.41;101674.88;4943092;28;20035;-76
2024/02/21 01:15:35;;;;;;;16.25;3.78;;;;;;;5.69;63.63;101666.22;4936661;28;20086;-76
2024/02/21 01:18:01;;;;;;;5.40;3.33;;;;;;;6.08;62.69;101669.38;4938998;28;20644;-76
2024/02/21 01:20:27;;;;;;;16.83;3.60;;;;;;;6.25;62.19;101659.72;4940631;28;20046;-72
2024/02/21 01:22:52;;;;;;;10.77;3.92;;;;;;;5.65;64.01;101667.97;4932844;28;21763;-67
2024/02/21 01:25:17;;;;;;;11.38;3.88;;;;;;;5.99;63.02;101666.88;4942050;28;20070;-67
2024/02/21 01:27:43;;;;;;;14.70;3.33;;;;;;;5.51;64.42;101674.13;4932611;28;20123;-67
2024/02/21 01:30:10;;;;;;;20.10;5.00;;;;;;;5.74;63.43;101661.00;4942415;28;20102;-67
2024/02/21 01:32:36;;;;;;;8.95;3.33;;;;;;;5.93;63.27;101675.56;4917780;28;20031;-76
2024/02/21 01:35:01;;;;;;;10.35;3.58;;;;;;;5.44;63.88;101674.16;4924340;28;20740;-77
2024/02/21 01:37:27;;;;;;;5.47;3.72;;;;;;;5.61;64.05;101679.25;4925399;28;20674;-75
2024/02/21 01:39:53;;;;;;;14.27;3.40;;;;;;;5.31;64.93;101666.47;4932629;28;20125;-74
2024/02/21 01:42:18;;;;;;;5.00;3.47;;;;;;;5.15;65.59;101676.06;4941158;28;20875;-69
2024/02/21 01:44:43;;;;;;;5.85;2.58;;;;;;;5.39;64.93;101678.53;4930734;28;20031;-68
2024/02/21 01:47:10;;;;;;;10.40;3.78;;;;;;;5.69;63.75;101675.75;4939633;28;20114;-68
2024/02/21 01:49:36;;;;;;;18.70;4.20;;;;;;;5.35;64.18;101675.97;4895194;28;20167;-69
2024/02/21 01:52:03;;;;;;;10.85;3.65;;;;;;;5.72;63.37;101675.72;4848132;28;20045;-69
2024/02/21 01:54:31;;;;;;;20.13;4.07;;;;;;;6.04;62.65;101673.75;4903188;28;20050;-71
2024/02/21 01:56:56;;;;;;;14.23;4.10;;;;;;;6.07;62.77;101673.72;4866855;28;20361;-72
2024/02/21 01:59:22;;;;;;;12.07;4.03;;;;;;;5.49;64.19;101658.59;4878080;28;20419;-72
2024/02/21 02:01:51;;;;;;;9.52;3.42;;;;;;;5.56;64.19;101662.84;4876637;28;20581;-72
2024/02/21 02:04:16;;;;;;;15.32;3.72;;;;;;;5.12;65.83;101663.09;4942552;28;20034;-71
2024/02/21 02:06:42;;;;;;;21.30;4.82;;;;;;;5.26;66.21;101650.94;4941513;28;20046;-71
2024/02/21 02:09:10;;;;;;;16.85;4.63;;;;;;;5.36;65.69;101662.97;4924136;28;20049;-71
2024/02/21 02:11:39;;;;;;;9.25;3.80;;;;;;;5.14;66.49;101638.88;4945066;28;20039;-71
2024/02/21 02:14:04;;;;;;;11.27;4.50;;;;;;;5.33;65.72;101650.03;4943720;28;20065;-68
2024/02/21 02:16:32;;;;;;;9.35;4.15;;;;;;;5.51;65.56;101646.47;4936237;28;20138;-68
2024/02/21 02:18:57;;;;;;;11.95;4.03;;;;;;;5.69;64.71;101661.03;4890698;28;20588;-67
2024/02/21 02:21:29;;;;;;;12.63;4.78;;;;;;;5.63;65.25;101653.28;4946686;28;20049;-68
2024/02/21 02:23:55;;;;;;;18.25;4.20;;;;;;;5.35;66.16;101647.44;4936061;28;20133;-68
2024/02/21 02:26:20;;;;;;;9.77;3.60;;;;;;;5.59;65.46;101649.00;4946860;28;20141;-67
2024/02/21 02:28:48;;;;;;;11.60;3.40;;;;;;;5.22;66.17;101647.50;4935748;28;20034;-68
2024/02/21 02:31:13;;;;;;;11.63;4.32;;;;;;;5.92;64.18;101642.69;4944822;28;20532;-67
2024/02/21 02:33:39;;;;;;;15.27;3.60;;;;;;;5.76;64.71;101643.72;4946050;28;20134;-67
2024/02/21 02:36:05;;;;;;;7.60;3.60;;;;;;;5.44;65.83;101635.28;4920103;28;22009;-67
2024/02/21 02:38:30;;;;;;;9.43;3.53;;;;;;;5.48;65.79;101633.53;4948070;28;20031;-67
2024/02/21 02:40:55;;;;;;;14.45;4.22;;;;;;;5.12;66.51;101627.66;4934548;28;20039;-66
2024/02/21 02:43:21;;;;;;;13.02;3.58;;;;;;;5.04;67.18;101635.50;4948014;28;20647;-67
2024/02/21 02:45:46;;;;;;;12.35;4.00;;;;;;;5.58;65.31;101630.00;4934182;28;20043;-67
2024/02/21 02:48:12;;;;;;;9.85;3.78;;;;;;;5.26;66.91;101635.41;4948115;28;20121;-67
2024/02/21 02:50:37;;;;;;;8.40;3.20;;;;;;;5.49;66.25;101636.97;4946251;28;20497;-67
2024/02/21 02:53:03;;;;;;;7.03;3.72;;;;;;;5.31;67.15;101631.03;4914800;28;20996;-67
2024/02/21 02:55:28;;;;;;;9.90;3.67;;;;;;;5.01;67.49;101624.28;4929575;28;20513;-67
2024/02/21 02:57:54;;;;;;;9.45;2.97;;;;;;;5.41;66.56;101624.06;4935968;28;20071;-67
2024/02/21 03:00:20;;;;;;;9.82;2.65;;;;;;;5.20;66.41;101622.47;4946000;28;20049;-67
2024/02/21 03:02:48;;;;;;;7.53;2.28;;;;;;;5.44;66.23;101616.28;4939721;28;20101;-66
2024/02/21 03:05:16;;;;;;;6.85;2.55;;;;;;;5.50;66.21;101621.41;4904549;28;20783;-69
2024/02/21 03:07:42;;;;;;;8.48;2.65;;;;;;;5.16;67.20;101624.19;4881287;28;20046;-68
2024/02/21 03:10:08;;;;;;;7.60;2.65;;;;;;;5.44;66.29;101614.53;4849697;28;21171;-67
2024/02/21 03:12:34;;;;;;;8.07;3.67;;;;;;;5.20;66.49;101614.69;4884106;28;20056;-69
2024/02/21 03:15:00;;;;;;;6.78;2.15;;;;;;;5.46;66.59;101611.94;4863203;28;20284;-68
2024/02/21 03:17:28;;;;;;;10.00;2.33;;;;;;;5.29;66.74;101616.38;4893813;28;20536;-69
2024/02/21 03:19:55;;;;;;;6.13;2.28;;;;;;;5.35;66.60;101608.56;4929128;28;20136;-68
2024/02/21 03:22:21;;;;;;;7.75;2.33;;;;;;;5.36;66.65;101605.09;4944176;28;20031;-69
2024/02/21 03:24:49;;;;;;;4.75;1.50;;;;;;;5.49;66.09;101617.09;4940765;28;20019;-68
2024/02/21 03:27:15;;;;;;;10.45;2.42;;;;;;;5.53;66.32;101613.63;4941466;28;20033;-66
2024/02/21 03:29:40;;;;;;;2.30;1.50;;;;;;;5.28;66.96;101625.00;4944467;28;20034;-68
2024/02/21 03:32:06;;;;;;;5.38;1.40;;;;;;;5.20;66.83;101625.06;4933068;28;20359;-70
2024/02/21 03:34:31;;;;;;;5.90;2.50;;;;;;;5.53;66.31;101617.94;4944873;28;20038;-68
2024/02/21 03:36:57;;;;;;;5.60;1.92;;;;;;;5.66;65.73;101627.38;4884460;28;20051;-66
2024/02/21 03:39:22;;;;;;;2.25;1.00;;;;;;;5.68;65.67;101628.19;4905616;28;21118;-66
2024/02/21 03:41:48;;;;;;;3.53;1.30;;;;;;;5.75;65.79;101624.69;4940612;28;20048;-66
2024/02/21 03:44:16;;;;;;;5.57;1.33;;;;;;;5.40;66.29;101618.00;4921486;28;20046;-66
2024/02/21 03:46:41;;;;;;;4.97;1.42;;;;;;;5.41;67.11;101613.69;4934905;28;20117;-66
2024/02/21 03:49:07;;;;;;;2.33;1.48;;;;;;;5.72;65.80;101616.06;4908378;28;20104;-65
2024/02/21 03:51:32;;;;;;;4.70;1.45;;;;;;;5.71;65.97;101614.34;4934812;28;20408;-65
2024/02/21 03:53:58;;;;;;;3.15;1.67;;;;;;;5.67;65.79;101610.91;4930388;28;20030;-66
2024/02/21 03:56:26;;;;;;;9.80;2.00;;;;;;;5.65;65.90;101612.66;4933642;28;20071;-65
2024/02/21 03:58:51;;;;;;;6.00;2.08;;;;;;;5.66;66.33;101614.38;4915697;28;20034;-65
2024/02/21 04:01:17;;;;;;;5.90;2.63;;;;;;;5.28;67.56;101609.44;4906594;28;20513;-66
2024/02/21 04:03:44;;;;;;;4.22;2.88;;;;;;;5.46;66.31;101620.56;4938860;28;20035;-67
2024/02/21 04:06:09;;;;;;;6.35;2.30;;;;;;;5.93;64.86;101615.03;4932829;28;20050;-67
2024/02/21 04:08:35;;;;;;;7.20;2.67;;;;;;;6.09;64.52;101603.63;4942444;28;20199;-67
2024/02/21 04:11:00;;;;;;;6.07;3.03;;;;;;;5.38;66.37;101608.53;4930542;28;20039;-68
2024/02/21 04:13:26;;;;;;;16.75;3.10;;;;;;;5.83;65.23;101611.66;4943287;28;20117;-67
2024/02/21 04:15:52;;;;;;;10.50;3.63;;;;;;;5.52;66.24;101611.03;4930489;28;20138;-67
2024/02/21 04:18:17;;;;;;;8.00;2.63;;;;;;;5.50;66.17;101617.94;4917088;28;20027;-67
2024/02/21 04:20:43;;;;;;;11.10;3.28;;;;;;;5.84;65.10;101623.75;4940388;28;20042;-67
2024/02/21 04:23:09;;;;;;;12.40;3.85;;;;;;;5.92;64.68;101616.75;4934688;28;20042;-67
2024/02/21 04:25:34;;;;;;;10.13;2.92;;;;;;;5.80;64.97;101612.53;4940686;28;20042;-67
2024/02/21 04:28:00;;;;;;;14.95;3.30;;;;;;;5.95;64.44;101616.75;4903888;28;20030;-67
2024/02/21 04:30:25;;;;;;;13.82;2.90;;;;;;;5.69;64.74;101608.31;4912994;28;20310;-71
2024/02/21 04:32:54;;;;;;;9.68;3.45;;;;;;;5.55;65.64;101611.88;4917862;28;20037;-69
2024/02/21 04:35:20;;;;;;;9.98;3.80;;;;;;;5.51;65.51;101615.34;4927791;28;20082;-70
2024/02/21 04:37:46;;;;;;;12.55;3.35;;;;;;;5.89;64.25;101611.59;4927050;28;20043;-72
2024/02/21 04:40:11;;;;;;;13.13;3.28;;;;;;;5.55;65.11;101604.09;4886190;28;20057;-73
2024/02/21 04:42:37;;;;;;;10.23;3.30;;;;;;;5.89;64.29;101611.59;4912430;28;20038;-72
2024/02/21 04:45:03;;;;;;;12.93;4.32;;;;;;;5.92;64.16;101603.78;4904612;28;20118;-72
2024/02/21 04:47:31;;;;;;;15.10;5.53;;;;;;;5.73;64.87;101604.84;4899331;28;20551;-73
2024/02/21 04:49:57;;;;;;;10.38;3.88;;;;;;;5.72;64.67;101613.47;4868120;28;20031;-67
2024/02/21 04:52:22;;;;;;;17.35;4.40;;;;;;;5.94;64.11;101608.97;4861695;28;20050;-69
2024/02/21 04:54:48;;;;;;;12.43;4.65;;;;;;;5.80;64.53;101609.09;4883656;28;20046;-71
2024/02/21 04:57:16;;;;;;;16.55;4.72;;;;;;;6.06;63.52;101601.06;4878825;28;20717;-67
2024/02/21 04:59:47;;;;;;;9.32;5.18;;;;;;;5.83;63.91;101598.66;4913405;28;20073;-66
2024/02/21 05:02:13;;;;;;;12.85;4.22;;;;;;;5.61;65.00;101592.78;4960919;28;20030;-71
2024/02/21 05:04:40;;;;;;;15.73;4.72;;;;;;;5.72;64.40;101593.56;4972788;28;20034;-69
2024/02/21 05:07:05;;;;;;;7.57;4.55;;;;;;;5.94;63.69;101594.25;4928971;28;20023;-70
2024/02/21 05:09:31;;;;;;;17.98;5.38;;;;;;;5.53;65.10;101592.88;4973241;28;20021;-70
2024/02/21 05:11:58;;;;;;;11.52;5.10;;;;;;;5.69;64.83;101592.75;4960647;28;20404;-70
2024/02/21 05:14:24;;;;;;;15.55;5.60;;;;;;;5.59;64.38;101590.25;4940326;28;20037;-71
2024/02/21 05:16:53;;;;;;;16.92;4.85;;;;;;;5.96;63.76;101587.31;4942221;28;20035;-71
2024/02/21 05:19:18;;;;;;;17.80;5.00;;;;;;;5.71;64.57;101578.03;4935920;28;20081;-72
2024/02/21 05:21:46;;;;;;;21.80;4.82;;;;;;;5.91;63.80;101594.28;4926134;28;20061;-73
2024/02/21 05:24:14;;;;;;;12.48;4.18;;;;;;;6.11;63.43;101588.06;4936952;28;20381;-71
2024/02/21 05:26:40;;;;;;;24.15;6.78;;;;;;;6.00;63.53;101588.16;4925250;28;20043;-74
2024/02/21 05:29:06;;;;;;;11.95;4.80;;;;;;;6.31;62.26;101593.94;4920253;28;20035;-73
2024/02/21 05:32:07;;;;;;;12.60;4.75;;;;;;;6.03;63.20;101588.97;4925294;28;20097;-74
2024/02/21 05:34:33;;;;;;;10.90;3.85;;;;;;;6.11;63.04;101590.66;4869004;29;20073;-73
2024/02/21 05:37:00;;;;;;;10.05;5.25;;;;;;;6.25;62.40;101586.16;4927373;28;20304;-72
2024/02/21 05:39:25;;;;;;;17.13;4.78;;;;;;;6.10;62.90;101579.38;4931562;28;21696;-72
2024/02/21 05:41:51;;;;;;;21.15;6.00;;;;;;;5.60;64.47;101578.97;4925838;28;20035;-76
2024/02/21 05:44:17;;;;;;;24.13;5.38;;;;;;;5.80;63.81;101575.38;4933070;28;20575;-75
2024/02/21 05:46:45;;;;;;;12.65;6.00;;;;;;;5.63;64.07;101572.91;4943639;28;20070;-77
2024/02/21 05:49:10;;;;;;;23.42;5.20;;;;;;;6.15;62.69;101566.38;4939100;28;20034;-77
2024/02/21 05:51:36;;;;;;;16.65;4.68;;;;;;;5.69;63.88;101567.66;4947317;28;20053;-76
2024/02/21 05:54:01;;;;;;;20.20;5.70;;;;;;;5.96;63.05;101566.56;4943403;28;20785;-71
2024/02/21 05:56:27;;;;;;;26.92;5.38;;;;;;;5.72;63.45;101559.00;4918526;28;20046;-68
2024/02/21 05:58:52;;;;;;;24.85;4.95;;;;;;;5.60;64.07;101555.63;4941584;28;20121;-66
2024/02/21 06:01:18;;;;;;;18.45;5.93;;;;;;;5.75;63.88;101557.25;4932190;28;20536;-67
2024/02/21 06:03:43;;;;;;;21.13;5.05;;;;;;;6.24;62.20;101561.09;4938791;28;20019;-67
2024/02/21 06:06:09;;;;;;;27.52;6.57;;;;;;;5.67;64.01;101570.25;4921427;28;20104;-70
2024/02/21 06:08:35;;;;;;;18.90;5.63;;;;;;;5.46;64.49;101560.94;4937727;28;20105;-67
2024/02/21 06:11:03;;;;;;;16.35;4.75;;;;;;;5.88;63.06;101560.56;4942370;28;20714;-72
2024/02/21 06:13:29;;;;;;;17.20;5.05;;;;;;;5.81;63.34;101567.53;4917725;28;21364;-70
2024/02/21 06:15:54;;;;;;;24.45;4.95;;;;;;;5.78;63.54;101577.09;4938044;28;20976;-70
2024/02/21 06:18:20;;;;;;;20.60;6.38;;;;;;;5.79;63.92;101571.03;4914626;28;20043;-69
2024/02/21 06:20:48;;;;;;;17.80;6.50;;;;;;;6.19;62.37;101574.09;4936708;28;20588;-67
2024/02/21 06:23:16;;;;;;;16.52;4.32;;;;;;;6.07;62.32;101574.25;4916071;28;20062;-68
2024/02/21 06:25:42;;;;;;;17.45;5.53;;;;;;;5.73;63.56;101573.72;4939717;28;20058;-71
2024/02/21 06:28:09;;;;;;;16.75;5.18;;;;;;;5.67;63.80;101572.84;4941815;28;20042;-67
2024/02/21 06:30:35;;;;;;;31.73;6.00;;;;;;;5.60;63.74;101578.97;4930333;28;20277;-69
2024/02/21 06:33:03;;;;;;;14.77;4.28;;;;;;;5.71;63.45;101570.25;4942743;28;20050;-67
2024/02/21 06:35:29;;;;;;;11.82;4.10;;;;;;;6.02;62.55;101566.50;4913180;28;20106;-72
2024/02/21 06:37:54;;;;;;;21.20;5.03;;;;;;;6.05;62.57;101556.09;4949744;28;20065;-67
2024/02/21 06:40:22;;;;;;;21.88;6.43;;;;;;;5.83;63.24;101555.41;4934117;28;20039;-67
2024/02/21 06:42:48;;;;;;;15.52;4.70;;;;;;;5.98;62.56;101545.78;4942359;28;20046;-73
2024/02/21 06:45:15;;;;;;;16.95;4.50;;;;;;;6.13;62.14;101547.34;4926942;28;20047;-69
2024/02/21 06:47:41;;;;;;;14.02;4.60;;;;;;;6.25;61.74;101542.88;4929420;28;20085;-68
2024/02/21 06:50:07;;;;;;;13.85;4.32;;;;;;;6.29;61.50;101548.94;4946998;28;20050;-68
2024/02/21 06:52:32;;;;;;;20.45;5.72;;;;;;;6.29;61.62;101538.56;4919584;28;20031;-68
2024/02/21 06:54:58;;;;;;;14.80;4.78;;;;;;;6.45;60.93;101534.91;4946620;28;20539;-69
2024/02/21 06:57:26;;;;;;;20.83;4.78;;;;;;;6.26;61.40;101538.56;4932399;28;20604;-69
2024/02/21 06:59:51;;;;;;;13.48;3.47;;;;;;;6.39;60.97;101540.16;4936165;28;20015;-73
2024/02/21 07:02:17;;;;;;;18.70;4.97;;;;;;;6.09;61.68;101552.59;4921880;28;20513;-71
2024/02/21 07:04:43;;;;;;;22.83;4.43;;;;;;;6.20;61.25;101549.88;4924529;28;20448;-70
2024/02/21 07:07:09;;;;;;;24.90;4.05;;;;;;;6.20;61.50;101554.22;4944623;28;20692;-68
2024/02/21 07:09:34;;;;;;;16.08;3.47;;;;;;;5.94;62.30;101544.94;4935926;28;20054;-69
2024/02/21 07:12:00;;;;;;;16.00;5.03;;;;;;;6.43;60.95;101547.03;4944842;28;20066;-68
2024/02/21 07:14:28;;;;;;;18.75;4.13;;;;;;;6.42;61.04;101545.34;4933774;28;20033;-68
2024/02/21 07:16:54;;;;;;;18.33;4.53;;;;;;;6.42;61.09;101536.69;4928149;28;20035;-65
2024/02/21 07:19:23;;;;;;;16.38;4.18;;;;;;;6.32;61.19;101535.06;4932924;28;20508;-67
2024/02/21 07:21:49;;;;;;;11.10;3.42;;;;;;;6.48;60.58;101534.00;4927979;28;20046;-68
2024/02/21 07:24:17;;;;;;;19.48;4.35;;;;;;;6.37;61.09;101530.69;4929693;28;20189;-66
2024/02/21 07:26:43;;;;;;;14.07;4.30;;;;;;;6.65;60.46;101531.19;4935540;28;20764;-67
2024/02/21 07:29:08;;;;;;;25.05;5.60;;;;;;;6.33;61.13;101535.06;4943002;28;20129;-67
2024/02/21 07:31:44;;;;;;;19.42;5.65;;;;;;;6.28;61.56;101537.72;4929451;28;20043;-67
2024/02/21 07:34:12;;;;;;;23.25;5.20;;;;;;;6.45;60.84;101534.91;4926905;28;20089;-67
2024/02/21 07:36:38;;;;;;;15.23;4.93;;;;;;;6.25;61.72;101537.69;4884307;28;20129;-68
2024/02/21 07:39:04;;;;;;;12.55;5.07;;;;;;;6.52;60.77;101529.63;4930751;28;22629;-68
2024/02/21 07:41:30;;;;;;;25.85;5.45;;;;;;;5.88;62.47;101535.50;4933886;28;20741;-69
2024/02/21 07:43:58;;;;;;;17.60;4.78;;;;;;;6.00;62.69;101542.31;4945190;28;20124;-68
2024/02/21 07:46:24;;;;;;;17.25;4.65;;;;;;;6.26;61.80;101541.16;4909062;28;20047;-68
2024/02/21 07:48:50;;;;;;;26.95;5.55;;;;;;;6.38;61.07;101538.47;4928500;28;20042;-68
2024/02/21 07:51:17;;;;;;;22.02;5.40;;;;;;;6.55;60.54;101539.97;4925141;28;20133;-68
2024/02/21 07:53:44;;;;;;;20.30;6.03;;;;;;;6.41;61.01;101533.22;4945331;28;20330;-68
2024/02/21 07:56:14;;;;;;;15.18;5.15;;;;;;;6.64;60.54;101530.34;4943012;28;20045;-69
2024/02/21 07:58:41;;;;;;;15.90;5.28;;;;;;;6.48;60.89;101531.41;4915077;28;20105;-69
2024/02/21 08:01:06;;;;;;;22.98;6.65;;;;;;;6.42;61.34;101528.91;4913946;28;20065;-68
2024/02/21 08:03:32;;;;;;;18.27;5.63;;;;;;;6.41;61.38;101530.63;4950338;28;20034;-67
2024/02/21 08:05:58;;;;;;;20.95;7.30;;;;;;;6.55;61.46;101524.41;4954130;28;20051;-68
2024/02/21 08:08:24;;;;;;;21.15;5.68;;;;;;;6.15;62.26;101514.44;4934910;28;20042;-68
2024/02/21 08:10:50;;;;;;;18.67;6.88;;;;;;;6.36;62.11;101514.25;4907412;28;20043;-71
2024/02/21 08:13:16;;;;;;;15.70;5.88;;;;;;;6.58;61.69;101514.84;4946467;28;20050;-69
2024/02/21 08:15:42;;;;;;;20.83;5.97;;;;;;;6.45;62.16;101515.88;4933741;28;20056;-67
2024/02/21 08:18:08;;;;;;;18.52;6.20;;;;;;;6.30;62.26;101514.31;4940262;28;20061;-69
2024/02/21 08:20:34;;;;;;;32.63;7.15;;;;;;;6.38;62.20;101509.91;4907732;28;20047;-69
2024/02/21 08:23:00;;;;;;;21.10;6.32;;;;;;;6.06;63.74;101515.41;4914830;28;20037;-67
2024/02/21 08:25:26;;;;;;;17.95;6.15;;;;;;;5.99;63.84;101514.63;4927513;28;20030;-67
2024/02/21 08:27:59;;;;;;;17.52;5.88;;;;;;;6.06;64.34;101505.91;4917452;28;20025;-68
2024/02/21 08:30:25;;;;;;;22.10;5.93;;;;;;;5.87;64.59;101500.03;4917082;28;20042;-69
2024/02/21 08:32:53;;;;;;;14.85;6.05;;;;;;;6.31;63.45;101494.41;4893254;28;20101;-69
2024/02/21 08:35:19;;;;;;;16.58;5.72;;;;;;;6.06;63.79;101489.47;4905742;28;20062;-69
2024/02/21 08:37:47;;;;;;;16.38;6.00;;;;;;;6.18;63.90;101478.09;4910367;28;20172;-69
2024/02/21 08:40:17;;;;;;;9.95;5.53;;;;;;;6.28;63.60;101474.53;4941902;28;20138;-69
2024/02/21 08:42:43;;;;;;;14.55;5.93;;;;;;;6.17;64.03;101472.06;4898534;28;20689;-70
2024/02/21 08:45:09;;;;;;;15.82;5.57;;;;;;;6.19;63.83;101469.41;4912046;28;20031;-70
2024/02/21 08:47:40;;;;;;;14.57;5.15;;;;;;;5.96;64.72;101473.13;4917857;28;20030;-69
2024/02/21 08:50:07;;;;;;;23.33;5.33;;;;;;;5.96;64.60;101482.66;4924459;28;20453;-69
2024/02/21 08:52:32;;;;;;;16.63;5.90;;;;;;;5.89;64.73;101481.88;4910214;28;20038;-69
2024/02/21 08:54:58;;;;;;;19.38;6.60;;;;;;;5.95;64.68;101476.63;4908274;28;20059;-69
2024/02/21 08:57:29;;;;;;;12.60;5.45;;;;;;;6.25;63.48;101478.00;4922473;28;20049;-70
2024/02/21 08:59:55;;;;;;;14.65;5.63;;;;;;;6.13;63.93;101480.75;4927336;28;20034;-70
2024/02/21 09:02:23;;;;;;;17.55;6.78;;;;;;;5.60;65.70;101477.00;4942675;28;20031;-69
2024/02/21 09:04:48;;;;;;;17.75;5.85;;;;;;;6.22;64.09;101459.03;4914913;28;20037;-69
2024/02/21 09:07:14;;;;;;;21.13;6.65;;;;;;;6.04;64.51;101455.75;4940169;28;20045;-69
2024/02/21 09:09:39;;;;;;;16.88;6.40;;;;;;;6.50;63.16;101457.78;4929625;28;20043;-69
2024/02/21 09:12:08;;;;;;;20.02;6.22;;;;;;;6.65;62.48;101446.34;4942656;28;20137;-70
2024/02/21 09:14:38;;;;;;;12.55;5.90;;;;;;;6.17;64.00;101448.69;4936944;28;20043;-69
2024/02/21 09:17:04;;;;;;;16.65;6.65;;;;;;;6.32;63.62;101463.22;4940981;28;20046;-69
2024/02/21 09:19:29;;;;;;;15.88;5.47;;;;;;;5.93;65.06;101457.63;4932045;28;20535;-69
2024/02/21 09:21:57;;;;;;;14.38;6.03;;;;;;;5.57;65.93;101456.25;4922432;28;20034;-69
2024/02/21 09:24:25;;;;;;;17.77;6.95;;;;;;;5.20;66.71;101454.00;4936093;28;20033;-69
2024/02/21 09:26:50;;;;;;;11.85;7.30;;;;;;;5.61;66.49;101447.56;4920645;28;20489;-69
2024/02/21 09:29:16;;;;;;;19.73;6.97;;;;;;;5.77;65.63;101445.69;4934719;28;20566;-69
2024/02/21 09:31:42;;;;;;;16.67;6.55;;;;;;;5.07;67.82;101439.44;4907806;28;20031;-69
2024/02/21 09:34:07;;;;;;;20.45;6.03;;;;;;;4.94;68.18;101436.06;4901597;28;21276;-69
2024/02/21 09:36:32;;;;;;;17.77;8.00;;;;;;;5.62;66.52;101434.59;4917152;28;20050;-69
2024/02/21 09:38:58;;;;;;;20.23;7.47;;;;;;;5.07;67.09;101422.13;4889956;28;20066;-69
2024/02/21 09:41:27;;;;;;;23.40;7.05;;;;;;;5.85;64.92;101423.09;4854711;28;20223;-68
2024/02/21 09:43:54;;;;;;;17.98;7.30;;;;;;;5.75;65.33;101422.38;4845712;28;20224;-68
2024/02/21 09:46:35;;;;;;;14.93;6.90;;;;;;;5.70;65.92;101418.94;4845032;28;20388;-68
2024/02/21 09:49:37;;;;;;;26.52;8.00;;;;;;;5.85;64.83;101423.09;4846813;28;20302;-68
2024/02/21 09:52:07;;;;;;;16.92;6.15;;;;;;;5.22;66.07;101411.66;4829080;28;20387;-70
2024/02/21 09:54:33;;;;;;;21.27;7.60;;;;;;;5.57;66.04;101406.97;4929934;28;20039;-69
2024/02/21 09:57:03;;;;;;;15.32;7.25;;;;;;;5.13;66.69;101414.31;4928269;28;20640;-69
2024/02/21 09:59:33;;;;;;;15.35;6.53;;;;;;;5.88;64.59;101412.69;4943273;28;20370;-70
2024/02/21 10:02:00;;;;;;;24.95;6.75;;;;;;;6.15;63.50;101402.84;4931516;28;20878;-69
2024/02/21 10:04:26;;;;;;;20.35;6.95;;;;;;;6.20;63.35;101401.91;4941322;28;20033;-68
2024/02/21 10:06:51;;;;;;;18.25;6.25;;;;;;;5.77;64.22;101401.56;4926347;28;20130;-69
2024/02/21 10:09:27;;;;;;;14.88;5.97;;;;;;;5.96;63.98;101399.63;4930949;28;20093;-68
2024/02/21 10:12:07;;;;;;;17.52;5.80;;;;;;;6.03;63.11;101394.34;4894646;28;20066;-69
2024/02/21 10:14:32;;;;;;;19.45;6.40;;;;;;;5.60;64.95;101387.06;4940913;28;20045;-69
2024/02/21 10:17:00;;;;;;;13.75;6.55;;;;;;;5.67;64.17;101380.94;4926891;28;21168;-68
2024/02/21 10:19:26;;;;;;;20.30;6.32;;;;;;;5.70;64.58;101377.44;4941300;28;20034;-69
2024/02/21 10:22:11;;;;;;;23.00;8.23;;;;;;;5.50;64.51;101369.88;4905876;28;20050;-69
2024/02/21 10:24:38;;;;;;;19.27;7.35;;;;;;;5.84;63.90;101377.31;4928063;28;20066;-69
2024/02/21 10:27:08;;;;;;;17.65;6.78;;;;;;;5.76;63.54;101371.34;4931231;28;20054;-69
2024/02/21 10:29:35;;;;;;;23.67;8.13;;;;;;;5.85;63.87;101371.22;4941109;28;20045;-69
2024/02/21 10:32:16;;;;;;;13.52;7.85;;;;;;;5.63;63.53;101358.50;4929599;28;20047;-68
2024/02/21 10:34:45;;;;;;;16.08;8.40;;;;;;;5.52;63.83;101368.13;4933774;28;20031;-70
2024/02/21 10:37:11;;;;;;;20.83;9.48;;;;;;;5.78;62.77;101365.25;4940060;28;20043;-69
2024/02/21 10:39:43;;;;;;;17.70;8.95;;;;;;;5.63;63.68;101363.69;4942249;28;20121;-69
2024/02/21 10:42:11;;;;;;;23.40;7.93;;;;;;;6.05;62.44;101356.25;4925233;28;20658;-69
2024/02/21 10:44:46;;;;;;;18.15;7.82;;;;;;;5.44;63.64;101344.06;4934776;28;20074;-69
2024/02/21 10:47:16;;;;;;;22.05;9.70;;;;;;;5.50;63.90;101346.56;4918329;28;20153;-69
2024/02/21 10:49:47;;;;;;;16.08;7.85;;;;;;;5.68;63.30;101342.88;4939257;28;20039;-69
2024/02/21 10:52:38;;;;;;;16.90;8.35;;;;;;;5.60;63.34;101330.03;4944210;28;20058;-69
2024/02/21 10:55:07;;;;;;;25.05;8.18;;;;;;;5.11;64.76;101329.72;4910388;28;20047;-68
2024/02/21 10:57:37;;;;;;;21.33;9.90;;;;;;;5.30;64.93;101330.34;4939459;28;20050;-69
2024/02/21 11:00:07;;;;;;;24.85;9.50;;;;;;;5.79;63.22;101322.00;4929886;28;21477;-69
2024/02/21 11:02:34;;;;;;;18.92;8.15;;;;;;;5.75;63.57;101318.63;4942434;28;20050;-68
2024/02/21 11:05:01;;;;;;;27.33;9.82;;;;;;;5.82;62.96;101306.41;4911152;28;20146;-69
2024/02/21 11:07:27;;;;;;;21.25;10.45;;;;;;;5.81;62.43;101307.28;4924173;28;20042;-69
2024/02/21 11:09:54;;;;;;;20.65;10.07;;;;;;;5.90;62.18;101301.97;4894844;28;20738;-68
2024/02/21 11:12:21;;;;;;;24.83;10.20;;;;;;;5.70;63.15;101299.63;4860147;28;20630;-68
2024/02/21 11:14:47;;;;;;;21.20;9.68;;;;;;;5.95;62.13;101289.81;4855407;28;20165;-68
2024/02/21 11:17:18;;;;;;;22.27;10.75;;;;;;;6.41;60.94;101291.72;4836810;28;20696;-68
2024/02/21 11:19:44;;;;;;;18.50;10.35;;;;;;;5.85;62.47;101288.22;4844895;28;20493;-70
2024/02/21 11:22:17;;;;;;;20.52;10.55;;;;;;;5.20;63.56;101286.41;4858483;28;20759;-69
2024/02/21 11:24:43;;;;;;;24.27;11.07;;;;;;;5.90;61.91;101277.78;4925680;28;20046;-70